Santana do Sao Francisco, Brazil
Current Conditions -  °F | °C
As of 10:00 AM on Friday 24 Oct 2014 (Local Time) from SBAR Reporting Station
Scattered Clouds Scattered Clouds  
Wind Chill: 82°   Ceiling: Unl
Heat Index: 85°   Visibility: 6mi
Dew Point: 66°   Wind: 13mph
Humidity: 58%   Direction: 120°ESE
Pressure: 30"   Gusts: NA
Location:  10.29°S, 36.61°W
Report Text: SBAR 241300Z 12011KT 9999 SCT017 28/19 Q1016
Loading
Personal Weather Stations






























Interactive Weather Map
Tropical Storm Tracking
New forecast layout! Learn more

10-Day Weather Forecast

Advertisements
Track Severe Weather on mobile